Terminal Aerodrome Forecast
Issued by NWS

Home | Current Version | Previous Version | Text Only | Print | Product List | Glossary On
Versions: 1 2 3 4 5 6 7 8 9 10 11 12 13 14 15 16 17 18 19 20 21
050
FTUS41 KPBZ 300639 AAA
TAFLBE
TAF AMD
KLBE 300639Z 3007/0106 10014KT P6SM SCT025 BKN050
      TEMPO 3008/3011 BKN025
     FM301900 11012G20KT P6SM VCSH BKN035
     FM010000 10010KT 6SM -SHRA BKN025=

USA.gov is the U.S. government's official web portal to all federal, state and local government web resources and services.